sensor_id;sensor_type;location;lat;lon;timestamp;temperature;humidity
11617;DHT22;5864;52.998;9.068;2023-04-15T00:00:23;8.50;75.80
11617;DHT22;5864;52.998;9.068;2023-04-15T00:03:09;10.70;67.40
11617;DHT22;5864;52.998;9.068;2023-04-15T00:05:57;8.60;86.50
11617;DHT22;5864;52.998;9.068;2023-04-15T00:08:44;8.50;91.00
11617;DHT22;5864;52.998;9.068;2023-04-15T00:11:29;8.50;80.00
11617;DHT22;5864;52.998;9.068;2023-04-15T00:14:14;8.40;94.80
11617;DHT22;5864;52.998;9.068;2023-04-15T00:17:01;8.40;94.70
11617;DHT22;5864;52.998;9.068;2023-04-15T00:19:46;8.90;97.30
11617;DHT22;5864;52.998;9.068;2023-04-15T00:22:34;8.40;99.90
11617;DHT22;5864;52.998;9.068;2023-04-15T00:25:19;8.30;99.50
11617;DHT22;5864;52.998;9.068;2023-04-15T00:28:06;8.30;99.90
11617;DHT22;5864;52.998;9.068;2023-04-15T00:30:51;8.30;99.90
11617;DHT22;5864;52.998;9.068;2023-04-15T00:33:38;8.30;99.90
11617;DHT22;5864;52.998;9.068;2023-04-15T00:36:23;8.30;99.90
11617;DHT22;5864;52.998;9.068;2023-04-15T00:39:11;8.20;99.90
11617;DHT22;5864;52.998;9.068;2023-04-15T00:41:57;8.20;99.90
11617;DHT22;5864;52.998;9.068;2023-04-15T00:44:43;8.30;99.90
11617;DHT22;5864;52.998;9.068;2023-04-15T00:47:29;8.30;99.90
11617;DHT22;5864;52.998;9.068;2023-04-15T00:50:15;8.40;99.90
11617;DHT22;5864;52.998;9.068;2023-04-15T00:53:00;11.10;99.90
11617;DHT22;5864;52.998;9.068;2023-04-15T00:55:47;9.50;99.90
11617;DHT22;5864;52.998;9.068;2023-04-15T00:58:33;8.40;99.90
11617;DHT22;5864;52.998;9.068;2023-04-15T01:01:21;8.30;99.90
11617;DHT22;5864;52.998;9.068;2023-04-15T01:04:07;8.30;99.90
11617;DHT22;5864;52.998;9.068;2023-04-15T01:06:53;9.30;99.90
11617;DHT22;5864;52.998;9.068;2023-04-15T01:09:39;8.30;99.90
11617;DHT22;5864;52.998;9.068;2023-04-15T01:12:26;8.40;99.90
11617;DHT22;5864;52.998;9.068;2023-04-15T01:15:12;11.60;99.90
11617;DHT22;5864;52.998;9.068;2023-04-15T01:17:59;8.60;99.90
11617;DHT22;5864;52.998;9.068;2023-04-15T01:20:45;10.20;99.90
11617;DHT22;5864;52.998;9.068;2023-04-15T01:23:31;11.10;99.90
11617;DHT22;5864;52.998;9.068;2023-04-15T01:26:18;8.20;99.90
11617;DHT22;5864;52.998;9.068;2023-04-15T01:29:05;8.20;99.90
11617;DHT22;5864;52.998;9.068;2023-04-15T01:31:52;8.20;99.90
11617;DHT22;5864;52.998;9.068;2023-04-15T01:34:39;8.20;99.90
11617;DHT22;5864;52.998;9.068;2023-04-15T01:37:25;8.20;99.90
11617;DHT22;5864;52.998;9.068;2023-04-15T01:40:11;8.20;99.90
11617;DHT22;5864;52.998;9.068;2023-04-15T01:42:58;8.20;99.90
11617;DHT22;5864;52.998;9.068;2023-04-15T01:45:44;8.20;99.90
11617;DHT22;5864;52.998;9.068;2023-04-15T01:48:30;8.10;99.90
11617;DHT22;5864;52.998;9.068;2023-04-15T01:51:16;8.20;99.90
11617;DHT22;5864;52.998;9.068;2023-04-15T01:54:02;8.10;99.90
11617;DHT22;5864;52.998;9.068;2023-04-15T01:56:48;8.10;99.90
11617;DHT22;5864;52.998;9.068;2023-04-15T01:59:34;8.00;99.90
11617;DHT22;5864;52.998;9.068;2023-04-15T02:02:20;7.90;99.90
11617;DHT22;5864;52.998;9.068;2023-04-15T02:05:06;7.90;99.90
11617;DHT22;5864;52.998;9.068;2023-04-15T02:07:52;7.80;99.90
11617;DHT22;5864;52.998;9.068;2023-04-15T02:10:38;9.40;99.90
11617;DHT22;5864;52.998;9.068;2023-04-15T02:13:24;8.50;99.90
11617;DHT22;5864;52.998;9.068;2023-04-15T02:16:17;7.80;99.90
11617;DHT22;5864;52.998;9.068;2023-04-15T02:19:04;7.80;99.90
11617;DHT22;5864;52.998;9.068;2023-04-15T02:21:49;10.40;99.90
11617;DHT22;5864;52.998;9.068;2023-04-15T02:24:34;7.80;99.90
11617;DHT22;5864;52.998;9.068;2023-04-15T02:27:21;7.80;99.90
11617;DHT22;5864;52.998;9.068;2023-04-15T02:30:07;10.30;99.90
11617;DHT22;5864;52.998;9.068;2023-04-15T02:32:54;7.90;99.90
11617;DHT22;5864;52.998;9.068;2023-04-15T02:35:39;7.90;99.90
11617;DHT22;5864;52.998;9.068;2023-04-15T02:38:28;7.80;99.90
11617;DHT22;5864;52.998;9.068;2023-04-15T02:41:14;8.90;99.90
11617;DHT22;5864;52.998;9.068;2023-04-15T02:44:01;7.90;99.90
11617;DHT22;5864;52.998;9.068;2023-04-15T02:46:47;7.90;99.90
11617;DHT22;5864;52.998;9.068;2023-04-15T02:49:37;10.40;99.90
11617;DHT22;5864;52.998;9.068;2023-04-15T02:52:23;7.90;99.90
11617;DHT22;5864;52.998;9.068;2023-04-15T02:55:09;7.90;99.90
11617;DHT22;5864;52.998;9.068;2023-04-15T02:57:54;7.80;99.90
11617;DHT22;5864;52.998;9.068;2023-04-15T03:00:41;7.80;99.90
11617;DHT22;5864;52.998;9.068;2023-04-15T03:03:27;7.80;99.90
11617;DHT22;5864;52.998;9.068;2023-04-15T03:06:14;7.70;99.90
11617;DHT22;5864;52.998;9.068;2023-04-15T03:09:00;7.70;99.90
11617;DHT22;5864;52.998;9.068;2023-04-15T03:11:45;7.80;99.90
11617;DHT22;5864;52.998;9.068;2023-04-15T03:14:32;9.50;99.90
11617;DHT22;5864;52.998;9.068;2023-04-15T03:17:17;10.60;99.90
11617;DHT22;5864;52.998;9.068;2023-04-15T03:20:05;7.70;99.90
11617;DHT22;5864;52.998;9.068;2023-04-15T03:22:53;7.60;99.90
11617;DHT22;5864;52.998;9.068;2023-04-15T03:25:39;7.60;99.90
11617;DHT22;5864;52.998;9.068;2023-04-15T03:28:24;9.00;99.90
11617;DHT22;5864;52.998;9.068;2023-04-15T03:31:11;7.70;99.90
11617;DHT22;5864;52.998;9.068;2023-04-15T03:33:57;7.70;99.90
11617;DHT22;5864;52.998;9.068;2023-04-15T03:36:43;7.60;99.90
11617;DHT22;5864;52.998;9.068;2023-04-15T03:39:30;7.60;99.90
11617;DHT22;5864;52.998;9.068;2023-04-15T03:42:15;7.70;99.90
11617;DHT22;5864;52.998;9.068;2023-04-15T03:45:01;7.80;99.90
11617;DHT22;5864;52.998;9.068;2023-04-15T03:47:46;7.70;99.90
11617;DHT22;5864;52.998;9.068;2023-04-15T03:50:32;7.70;99.90
11617;DHT22;5864;52.998;9.068;2023-04-15T03:53:20;7.80;99.90
11617;DHT22;5864;52.998;9.068;2023-04-15T03:56:08;8.30;99.90
11617;DHT22;5864;52.998;9.068;2023-04-15T03:58:53;7.60;99.90
11617;DHT22;5864;52.998;9.068;2023-04-15T04:01:40;7.80;99.90
11617;DHT22;5864;52.998;9.068;2023-04-15T04:04:25;8.00;99.90
11617;DHT22;5864;52.998;9.068;2023-04-15T04:07:14;8.50;99.90
11617;DHT22;5864;52.998;9.068;2023-04-15T04:10:01;9.40;99.90
11617;DHT22;5864;52.998;9.068;2023-04-15T04:12:49;7.80;99.90
11617;DHT22;5864;52.998;9.068;2023-04-15T04:15:34;7.70;99.90
11617;DHT22;5864;52.998;9.068;2023-04-15T04:18:21;7.70;99.90
11617;DHT22;5864;52.998;9.068;2023-04-15T04:21:07;7.80;99.90
11617;DHT22;5864;52.998;9.068;2023-04-15T04:23:52;9.90;99.90
11617;DHT22;5864;52.998;9.068;2023-04-15T04:26:38;7.80;99.90
11617;DHT22;5864;52.998;9.068;2023-04-15T04:29:25;7.80;99.90
11617;DHT22;5864;52.998;9.068;2023-04-15T04:32:12;7.90;99.90
11617;DHT22;5864;52.998;9.068;2023-04-15T04:34:57;7.90;99.90
11617;DHT22;5864;52.998;9.068;2023-04-15T04:37:44;7.90;99.90
11617;DHT22;5864;52.998;9.068;2023-04-15T04:40:29;10.60;99.90
11617;DHT22;5864;52.998;9.068;2023-04-15T04:43:16;7.80;99.90
11617;DHT22;5864;52.998;9.068;2023-04-15T04:46:02;7.80;99.90
11617;DHT22;5864;52.998;9.068;2023-04-15T04:48:49;9.70;99.90
11617;DHT22;5864;52.998;9.068;2023-04-15T04:51:34;8.00;99.90
11617;DHT22;5864;52.998;9.068;2023-04-15T04:54:21;5.60;99.90
11617;DHT22;5864;52.998;9.068;2023-04-15T04:57:06;9.00;99.90
11617;DHT22;5864;52.998;9.068;2023-04-15T04:59:52;7.90;99.90
11617;DHT22;5864;52.998;9.068;2023-04-15T05:02:39;7.90;99.90
11617;DHT22;5864;52.998;9.068;2023-04-15T05:05:27;8.00;99.90
11617;DHT22;5864;52.998;9.068;2023-04-15T05:08:16;7.90;99.90
11617;DHT22;5864;52.998;9.068;2023-04-15T05:11:02;7.90;99.90
11617;DHT22;5864;52.998;9.068;2023-04-15T05:13:48;8.00;99.90
11617;DHT22;5864;52.998;9.068;2023-04-15T05:16:33;8.00;99.90
11617;DHT22;5864;52.998;9.068;2023-04-15T05:19:20;8.00;99.90
11617;DHT22;5864;52.998;9.068;2023-04-15T05:22:05;8.00;99.90
11617;DHT22;5864;52.998;9.068;2023-04-15T05:24:51;9.80;99.90
11617;DHT22;5864;52.998;9.068;2023-04-15T05:27:38;8.00;99.90
11617;DHT22;5864;52.998;9.068;2023-04-15T05:30:23;8.00;99.90
11617;DHT22;5864;52.998;9.068;2023-04-15T05:33:10;9.70;99.90
11617;DHT22;5864;52.998;9.068;2023-04-15T05:35:57;8.00;99.90
11617;DHT22;5864;52.998;9.068;2023-04-15T05:38:42;8.00;99.90
11617;DHT22;5864;52.998;9.068;2023-04-15T05:41:28;7.90;99.90
11617;DHT22;5864;52.998;9.068;2023-04-15T05:44:14;8.00;99.90
11617;DHT22;5864;52.998;9.068;2023-04-15T05:46:59;8.00;99.90
11617;DHT22;5864;52.998;9.068;2023-04-15T05:49:47;8.50;99.90
11617;DHT22;5864;52.998;9.068;2023-04-15T05:52:33;10.00;99.90
11617;DHT22;5864;52.998;9.068;2023-04-15T05:55:19;8.10;99.90
11617;DHT22;5864;52.998;9.068;2023-04-15T05:58:06;8.00;99.90
11617;DHT22;5864;52.998;9.068;2023-04-15T06:00:51;9.30;99.90
11617;DHT22;5864;52.998;9.068;2023-04-15T06:03:36;11.00;99.90
11617;DHT22;5864;52.998;9.068;2023-04-15T06:06:22;8.00;99.90
11617;DHT22;5864;52.998;9.068;2023-04-15T06:09:10;8.00;99.90
11617;DHT22;5864;52.998;9.068;2023-04-15T06:11:56;8.00;99.90
11617;DHT22;5864;52.998;9.068;2023-04-15T06:14:41;9.20;99.90
11617;DHT22;5864;52.998;9.068;2023-04-15T06:17:28;6.90;99.90
11617;DHT22;5864;52.998;9.068;2023-04-15T06:20:13;8.00;99.90
11617;DHT22;5864;52.998;9.068;2023-04-15T06:23:00;7.90;99.90
11617;DHT22;5864;52.998;9.068;2023-04-15T06:25:46;8.00;99.90
11617;DHT22;5864;52.998;9.068;2023-04-15T06:28:33;9.10;99.90
11617;DHT22;5864;52.998;9.068;2023-04-15T06:31:18;8.00;99.90
11617;DHT22;5864;52.998;9.068;2023-04-15T06:34:04;8.00;99.90
11617;DHT22;5864;52.998;9.068;2023-04-15T06:36:49;8.20;99.90
11617;DHT22;5864;52.998;9.068;2023-04-15T06:39:36;9.80;99.90
11617;DHT22;5864;52.998;9.068;2023-04-15T06:42:23;9.50;99.90
11617;DHT22;5864;52.998;9.068;2023-04-15T06:45:10;9.90;99.90
11617;DHT22;5864;52.998;9.068;2023-04-15T06:47:56;8.10;99.90
11617;DHT22;5864;52.998;9.068;2023-04-15T06:50:42;8.10;99.90
11617;DHT22;5864;52.998;9.068;2023-04-15T06:53:27;8.00;99.90
11617;DHT22;5864;52.998;9.068;2023-04-15T06:56:14;10.60;99.90
11617;DHT22;5864;52.998;9.068;2023-04-15T06:59:00;9.10;99.90
11617;DHT22;5864;52.998;9.068;2023-04-15T07:01:46;8.60;99.90
11617;DHT22;5864;52.998;9.068;2023-04-15T07:04:32;8.20;99.90
11617;DHT22;5864;52.998;9.068;2023-04-15T07:07:18;9.30;99.90
11617;DHT22;5864;52.998;9.068;2023-04-15T07:10:05;8.20;99.90
11617;DHT22;5864;52.998;9.068;2023-04-15T07:12:51;8.20;99.90
11617;DHT22;5864;52.998;9.068;2023-04-15T07:15:38;10.40;99.90
11617;DHT22;5864;52.998;9.068;2023-04-15T07:18:24;8.30;99.90
11617;DHT22;5864;52.998;9.068;2023-04-15T07:21:09;8.30;99.90
11617;DHT22;5864;52.998;9.068;2023-04-15T07:23:55;11.00;99.90
11617;DHT22;5864;52.998;9.068;2023-04-15T07:26:41;8.30;99.90
11617;DHT22;5864;52.998;9.068;2023-04-15T07:29:27;8.40;99.90
11617;DHT22;5864;52.998;9.068;2023-04-15T07:32:15;8.40;99.90
11617;DHT22;5864;52.998;9.068;2023-04-15T07:35:00;8.40;99.90
11617;DHT22;5864;52.998;9.068;2023-04-15T07:37:46;8.40;99.90
11617;DHT22;5864;52.998;9.068;2023-04-15T07:40:32;8.50;99.90
11617;DHT22;5864;52.998;9.068;2023-04-15T07:43:18;8.40;99.90
11617;DHT22;5864;52.998;9.068;2023-04-15T07:46:05;8.40;99.90
11617;DHT22;5864;52.998;9.068;2023-04-15T07:48:51;8.50;99.90
11617;DHT22;5864;52.998;9.068;2023-04-15T07:51:37;8.40;99.90
11617;DHT22;5864;52.998;9.068;2023-04-15T07:54:24;8.30;99.90
11617;DHT22;5864;52.998;9.068;2023-04-15T07:57:10;8.30;99.90
11617;DHT22;5864;52.998;9.068;2023-04-15T07:59:55;8.80;99.90
11617;DHT22;5864;52.998;9.068;2023-04-15T08:02:41;8.30;99.90
11617;DHT22;5864;52.998;9.068;2023-04-15T08:05:28;8.40;99.90
11617;DHT22;5864;52.998;9.068;2023-04-15T08:08:15;8.40;99.90
11617;DHT22;5864;52.998;9.068;2023-04-15T08:11:00;8.40;99.90
11617;DHT22;5864;52.998;9.068;2023-04-15T08:13:46;8.40;99.90
11617;DHT22;5864;52.998;9.068;2023-04-15T08:16:32;8.50;99.90
11617;DHT22;5864;52.998;9.068;2023-04-15T08:19:17;10.00;99.90
11617;DHT22;5864;52.998;9.068;2023-04-15T08:22:05;8.60;99.90
11617;DHT22;5864;52.998;9.068;2023-04-15T08:24:50;8.50;99.90
11617;DHT22;5864;52.998;9.068;2023-04-15T08:27:36;8.50;99.90
11617;DHT22;5864;52.998;9.068;2023-04-15T08:30:21;9.90;99.90
11617;DHT22;5864;52.998;9.068;2023-04-15T08:33:07;8.60;99.90
11617;DHT22;5864;52.998;9.068;2023-04-15T08:35:53;9.40;99.90
11617;DHT22;5864;52.998;9.068;2023-04-15T08:38:40;9.30;99.90
11617;DHT22;5864;52.998;9.068;2023-04-15T08:41:26;9.20;99.90
11617;DHT22;5864;52.998;9.068;2023-04-15T08:44:13;8.60;99.90
11617;DHT22;5864;52.998;9.068;2023-04-15T08:47:00;8.60;99.90
11617;DHT22;5864;52.998;9.068;2023-04-15T08:49:46;9.00;99.90
11617;DHT22;5864;52.998;9.068;2023-04-15T08:52:37;8.60;99.90
11617;DHT22;5864;52.998;9.068;2023-04-15T08:55:26;8.60;99.90
11617;DHT22;5864;52.998;9.068;2023-04-15T08:58:14;8.60;99.90
11617;DHT22;5864;52.998;9.068;2023-04-15T09:01:01;10.70;99.90
11617;DHT22;5864;52.998;9.068;2023-04-15T09:03:48;8.70;99.90
11617;DHT22;5864;52.998;9.068;2023-04-15T09:06:35;8.70;99.90
11617;DHT22;5864;52.998;9.068;2023-04-15T09:09:20;8.80;99.90
11617;DHT22;5864;52.998;9.068;2023-04-15T09:12:08;10.60;99.90
11617;DHT22;5864;52.998;9.068;2023-04-15T09:14:54;9.30;99.90
11617;DHT22;5864;52.998;9.068;2023-04-15T09:17:42;8.80;99.90
11617;DHT22;5864;52.998;9.068;2023-04-15T09:20:27;8.80;99.90
11617;DHT22;5864;52.998;9.068;2023-04-15T09:23:13;8.90;99.90
11617;DHT22;5864;52.998;9.068;2023-04-15T09:26:01;9.80;99.90
11617;DHT22;5864;52.998;9.068;2023-04-15T09:28:48;8.90;99.90
11617;DHT22;5864;52.998;9.068;2023-04-15T09:31:34;11.20;99.90
11617;DHT22;5864;52.998;9.068;2023-04-15T09:34:20;9.10;99.90
11617;DHT22;5864;52.998;9.068;2023-04-15T09:37:06;9.60;99.90
11617;DHT22;5864;52.998;9.068;2023-04-15T09:39:53;9.00;99.90
11617;DHT22;5864;52.998;9.068;2023-04-15T09:42:53;8.90;99.90
11617;DHT22;5864;52.998;9.068;2023-04-15T09:45:47;9.00;99.90
11617;DHT22;5864;52.998;9.068;2023-04-15T09:48:33;10.70;99.90
11617;DHT22;5864;52.998;9.068;2023-04-15T09:51:33;9.00;99.90
11617;DHT22;5864;52.998;9.068;2023-04-15T09:54:18;9.00;99.90
11617;DHT22;5864;52.998;9.068;2023-04-15T09:57:07;9.10;99.90
11617;DHT22;5864;52.998;9.068;2023-04-15T09:59:52;9.20;99.90
11617;DHT22;5864;52.998;9.068;2023-04-15T10:02:40;9.10;99.90
11617;DHT22;5864;52.998;9.068;2023-04-15T10:05:26;10.80;99.90
11617;DHT22;5864;52.998;9.068;2023-04-15T10:08:14;9.20;99.90
11617;DHT22;5864;52.998;9.068;2023-04-15T10:11:01;9.20;99.90
11617;DHT22;5864;52.998;9.068;2023-04-15T10:13:48;10.80;99.90
11617;DHT22;5864;52.998;9.068;2023-04-15T10:16:35;9.30;99.90
11617;DHT22;5864;52.998;9.068;2023-04-15T10:19:25;9.30;99.90
11617;DHT22;5864;52.998;9.068;2023-04-15T10:22:13;11.50;99.90
11617;DHT22;5864;52.998;9.068;2023-04-15T10:24:58;9.40;99.90
11617;DHT22;5864;52.998;9.068;2023-04-15T10:27:44;9.40;99.90
11617;DHT22;5864;52.998;9.068;2023-04-15T10:30:32;9.60;99.90
11617;DHT22;5864;52.998;9.068;2023-04-15T10:33:21;9.60;99.90
11617;DHT22;5864;52.998;9.068;2023-04-15T10:36:08;9.60;99.90
11617;DHT22;5864;52.998;9.068;2023-04-15T10:38:54;9.60;99.90
11617;DHT22;5864;52.998;9.068;2023-04-15T10:41:40;9.70;99.90
11617;DHT22;5864;52.998;9.068;2023-04-15T10:44:25;9.70;99.90
11617;DHT22;5864;52.998;9.068;2023-04-15T10:47:14;9.60;99.90
11617;DHT22;5864;52.998;9.068;2023-04-15T10:50:01;9.70;99.90
11617;DHT22;5864;52.998;9.068;2023-04-15T10:52:51;9.70;99.90
11617;DHT22;5864;52.998;9.068;2023-04-15T10:55:37;9.80;99.90
11617;DHT22;5864;52.998;9.068;2023-04-15T10:58:23;9.90;99.90
11617;DHT22;5864;52.998;9.068;2023-04-15T11:01:09;10.40;99.90
11617;DHT22;5864;52.998;9.068;2023-04-15T11:03:56;9.80;99.90
11617;DHT22;5864;52.998;9.068;2023-04-15T11:06:44;9.70;99.90
11617;DHT22;5864;52.998;9.068;2023-04-15T11:09:32;9.80;99.90
11617;DHT22;5864;52.998;9.068;2023-04-15T11:12:18;9.70;99.90
11617;DHT22;5864;52.998;9.068;2023-04-15T11:15:27;9.80;99.90
11617;DHT22;5864;52.998;9.068;2023-04-15T11:18:15;9.80;99.90
11617;DHT22;5864;52.998;9.068;2023-04-15T11:21:03;11.00;99.90
11617;DHT22;5864;52.998;9.068;2023-04-15T11:23:50;9.80;99.90
11617;DHT22;5864;52.998;9.068;2023-04-15T11:26:36;10.20;99.90
11617;DHT22;5864;52.998;9.068;2023-04-15T11:29:28;10.50;99.90
11617;DHT22;5864;52.998;9.068;2023-04-15T11:32:15;10.00;99.90
11617;DHT22;5864;52.998;9.068;2023-04-15T11:35:00;9.90;99.90
11617;DHT22;5864;52.998;9.068;2023-04-15T11:37:48;9.90;99.90
11617;DHT22;5864;52.998;9.068;2023-04-15T11:40:33;9.90;99.90
11617;DHT22;5864;52.998;9.068;2023-04-15T11:43:22;10.00;99.90
11617;DHT22;5864;52.998;9.068;2023-04-15T11:46:08;9.90;99.90
11617;DHT22;5864;52.998;9.068;2023-04-15T11:48:54;9.80;99.90
11617;DHT22;5864;52.998;9.068;2023-04-15T11:51:39;9.90;99.90
11617;DHT22;5864;52.998;9.068;2023-04-15T11:54:25;10.00;99.90
11617;DHT22;5864;52.998;9.068;2023-04-15T11:57:10;10.00;99.90
11617;DHT22;5864;52.998;9.068;2023-04-15T11:59:57;10.00;99.90
11617;DHT22;5864;52.998;9.068;2023-04-15T12:02:43;10.00;99.90
11617;DHT22;5864;52.998;9.068;2023-04-15T12:05:30;10.90;99.90
11617;DHT22;5864;52.998;9.068;2023-04-15T12:08:15;9.80;99.90
11617;DHT22;5864;52.998;9.068;2023-04-15T12:11:01;11.50;99.90
11617;DHT22;5864;52.998;9.068;2023-04-15T12:13:47;9.70;99.90
11617;DHT22;5864;52.998;9.068;2023-04-15T12:16:35;9.80;99.90
11617;DHT22;5864;52.998;9.068;2023-04-15T12:19:26;9.80;99.90
11617;DHT22;5864;52.998;9.068;2023-04-15T12:22:13;9.90;99.90
11617;DHT22;5864;52.998;9.068;2023-04-15T12:24:59;10.00;99.90
11617;DHT22;5864;52.998;9.068;2023-04-15T12:27:50;10.00;99.90
11617;DHT22;5864;52.998;9.068;2023-04-15T12:30:47;10.10;99.90
11617;DHT22;5864;52.998;9.068;2023-04-15T12:33:34;10.20;99.90
11617;DHT22;5864;52.998;9.068;2023-04-15T12:36:20;10.30;99.90
11617;DHT22;5864;52.998;9.068;2023-04-15T12:39:05;10.40;99.90
11617;DHT22;5864;52.998;9.068;2023-04-15T12:41:51;10.50;99.90
11617;DHT22;5864;52.998;9.068;2023-04-15T12:44:37;10.60;99.90
11617;DHT22;5864;52.998;9.068;2023-04-15T12:47:24;10.50;99.90
11617;DHT22;5864;52.998;9.068;2023-04-15T12:50:11;10.60;99.90
11617;DHT22;5864;52.998;9.068;2023-04-15T12:52:56;10.80;99.90
11617;DHT22;5864;52.998;9.068;2023-04-15T12:55:41;10.70;99.90
11617;DHT22;5864;52.998;9.068;2023-04-15T12:58:28;12.60;99.90
11617;DHT22;5864;52.998;9.068;2023-04-15T13:01:13;10.90;99.90
11617;DHT22;5864;52.998;9.068;2023-04-15T13:03:58;11.00;99.90
11617;DHT22;5864;52.998;9.068;2023-04-15T13:06:46;11.30;99.90
11617;DHT22;5864;52.998;9.068;2023-04-15T13:09:32;11.10;99.90
11617;DHT22;5864;52.998;9.068;2023-04-15T13:12:18;13.10;99.90
11617;DHT22;5864;52.998;9.068;2023-04-15T13:15:03;11.40;99.90
11617;DHT22;5864;52.998;9.068;2023-04-15T13:17:49;11.50;99.90
11617;DHT22;5864;52.998;9.068;2023-04-15T13:20:36;11.80;99.90
11617;DHT22;5864;52.998;9.068;2023-04-15T13:23:22;12.10;99.90
11617;DHT22;5864;52.998;9.068;2023-04-15T13:26:09;12.30;99.90
11617;DHT22;5864;52.998;9.068;2023-04-15T13:28:54;12.70;99.90
11617;DHT22;5864;52.998;9.068;2023-04-15T13:31:39;13.10;99.90
11617;DHT22;5864;52.998;9.068;2023-04-15T13:34:26;13.50;99.90
11617;DHT22;5864;52.998;9.068;2023-04-15T13:37:11;13.70;99.90
11617;DHT22;5864;52.998;9.068;2023-04-15T13:39:58;13.60;99.90
11617;DHT22;5864;52.998;9.068;2023-04-15T13:42:44;13.50;99.90
11617;DHT22;5864;52.998;9.068;2023-04-15T13:45:31;13.60;99.90
11617;DHT22;5864;52.998;9.068;2023-04-15T13:48:16;13.80;99.90
11617;DHT22;5864;52.998;9.068;2023-04-15T13:51:01;13.70;99.90
11617;DHT22;5864;52.998;9.068;2023-04-15T13:53:47;13.70;99.90
11617;DHT22;5864;52.998;9.068;2023-04-15T13:56:34;13.70;99.90
11617;DHT22;5864;52.998;9.068;2023-04-15T13:59:21;13.50;99.90
11617;DHT22;5864;52.998;9.068;2023-04-15T14:02:06;13.60;99.90
11617;DHT22;5864;52.998;9.068;2023-04-15T14:04:52;13.70;99.90
11617;DHT22;5864;52.998;9.068;2023-04-15T14:07:38;13.80;99.90
11617;DHT22;5864;52.998;9.068;2023-04-15T14:10:24;13.90;99.90
11617;DHT22;5864;52.998;9.068;2023-04-15T14:13:10;14.00;99.90
11617;DHT22;5864;52.998;9.068;2023-04-15T14:15:57;13.90;99.90
11617;DHT22;5864;52.998;9.068;2023-04-15T14:18:43;13.70;99.90
11617;DHT22;5864;52.998;9.068;2023-04-15T14:21:29;13.80;99.90
11617;DHT22;5864;52.998;9.068;2023-04-15T14:24:15;13.70;99.90
11617;DHT22;5864;52.998;9.068;2023-04-15T14:27:02;13.60;99.90
11617;DHT22;5864;52.998;9.068;2023-04-15T14:29:48;14.00;99.90
11617;DHT22;5864;52.998;9.068;2023-04-15T14:32:35;14.30;99.90
11617;DHT22;5864;52.998;9.068;2023-04-15T14:35:20;14.40;99.90
11617;DHT22;5864;52.998;9.068;2023-04-15T14:38:08;14.30;99.90
11617;DHT22;5864;52.998;9.068;2023-04-15T14:40:54;14.10;99.90
11617;DHT22;5864;52.998;9.068;2023-04-15T14:43:40;14.10;99.90
11617;DHT22;5864;52.998;9.068;2023-04-15T14:46:26;14.30;99.90
11617;DHT22;5864;52.998;9.068;2023-04-15T14:49:13;14.10;99.90
11617;DHT22;5864;52.998;9.068;2023-04-15T14:51:58;13.90;99.90
11617;DHT22;5864;52.998;9.068;2023-04-15T14:54:45;13.80;99.90
11617;DHT22;5864;52.998;9.068;2023-04-15T14:57:30;13.60;99.90
11617;DHT22;5864;52.998;9.068;2023-04-15T15:00:16;13.60;99.90
11617;DHT22;5864;52.998;9.068;2023-04-15T15:03:03;13.70;99.90
11617;DHT22;5864;52.998;9.068;2023-04-15T15:05:49;13.70;99.90
11617;DHT22;5864;52.998;9.068;2023-04-15T15:08:35;13.70;99.90
11617;DHT22;5864;52.998;9.068;2023-04-15T15:11:22;13.80;99.90
11617;DHT22;5864;52.998;9.068;2023-04-15T15:14:07;13.60;99.90
11617;DHT22;5864;52.998;9.068;2023-04-15T15:16:52;13.50;99.90
11617;DHT22;5864;52.998;9.068;2023-04-15T15:19:39;13.30;99.90
11617;DHT22;5864;52.998;9.068;2023-04-15T15:22:26;13.20;99.90
11617;DHT22;5864;52.998;9.068;2023-04-15T15:25:11;13.30;99.90
11617;DHT22;5864;52.998;9.068;2023-04-15T15:27:58;13.30;99.90
11617;DHT22;5864;52.998;9.068;2023-04-15T15:30:43;13.40;99.90
11617;DHT22;5864;52.998;9.068;2023-04-15T15:33:29;13.50;99.90
11617;DHT22;5864;52.998;9.068;2023-04-15T15:36:16;13.60;99.90
11617;DHT22;5864;52.998;9.068;2023-04-15T15:39:02;13.60;99.90
11617;DHT22;5864;52.998;9.068;2023-04-15T15:41:47;13.70;99.90
11617;DHT22;5864;52.998;9.068;2023-04-15T15:44:33;13.70;99.90
11617;DHT22;5864;52.998;9.068;2023-04-15T15:47:20;13.60;99.90
11617;DHT22;5864;52.998;9.068;2023-04-15T15:50:07;13.50;99.90
11617;DHT22;5864;52.998;9.068;2023-04-15T15:52:54;13.60;99.90
11617;DHT22;5864;52.998;9.068;2023-04-15T15:55:39;13.70;99.90
11617;DHT22;5864;52.998;9.068;2023-04-15T15:58:24;13.60;99.90
11617;DHT22;5864;52.998;9.068;2023-04-15T16:01:10;13.40;99.90
11617;DHT22;5864;52.998;9.068;2023-04-15T16:03:56;13.50;99.90
11617;DHT22;5864;52.998;9.068;2023-04-15T16:06:43;13.50;99.90
11617;DHT22;5864;52.998;9.068;2023-04-15T16:09:31;13.50;99.90
11617;DHT22;5864;52.998;9.068;2023-04-15T16:12:17;13.40;99.90
11617;DHT22;5864;52.998;9.068;2023-04-15T16:15:03;13.50;99.90
11617;DHT22;5864;52.998;9.068;2023-04-15T16:17:49;13.40;99.90
11617;DHT22;5864;52.998;9.068;2023-04-15T16:20:34;13.50;99.90
11617;DHT22;5864;52.998;9.068;2023-04-15T16:23:20;13.50;99.90
11617;DHT22;5864;52.998;9.068;2023-04-15T16:26:08;13.50;99.90
11617;DHT22;5864;52.998;9.068;2023-04-15T16:28:53;13.50;99.90
11617;DHT22;5864;52.998;9.068;2023-04-15T16:31:40;13.60;99.90
11617;DHT22;5864;52.998;9.068;2023-04-15T16:34:26;13.60;99.90
11617;DHT22;5864;52.998;9.068;2023-04-15T16:37:13;13.60;99.90
11617;DHT22;5864;52.998;9.068;2023-04-15T16:39:58;13.60;99.90
11617;DHT22;5864;52.998;9.068;2023-04-15T16:42:46;13.70;99.90
11617;DHT22;5864;52.998;9.068;2023-04-15T16:45:32;13.50;99.90
11617;DHT22;5864;52.998;9.068;2023-04-15T16:48:18;13.50;99.90
11617;DHT22;5864;52.998;9.068;2023-04-15T16:51:04;13.60;99.90
11617;DHT22;5864;52.998;9.068;2023-04-15T16:53:50;13.60;99.90
11617;DHT22;5864;52.998;9.068;2023-04-15T16:56:35;13.60;99.90
11617;DHT22;5864;52.998;9.068;2023-04-15T16:59:22;13.60;99.90
11617;DHT22;5864;52.998;9.068;2023-04-15T17:02:09;13.80;99.90
11617;DHT22;5864;52.998;9.068;2023-04-15T17:04:54;13.60;99.90
11617;DHT22;5864;52.998;9.068;2023-04-15T17:07:40;13.60;99.90
11617;DHT22;5864;52.998;9.068;2023-04-15T17:10:26;13.50;99.90
11617;DHT22;5864;52.998;9.068;2023-04-15T17:13:12;13.60;99.90
11617;DHT22;5864;52.998;9.068;2023-04-15T17:15:58;13.40;99.90
11617;DHT22;5864;52.998;9.068;2023-04-15T17:18:45;13.20;99.90
11617;DHT22;5864;52.998;9.068;2023-04-15T17:21:33;13.20;99.90
11617;DHT22;5864;52.998;9.068;2023-04-15T17:24:19;13.20;99.90
11617;DHT22;5864;52.998;9.068;2023-04-15T17:27:04;13.10;99.90
11617;DHT22;5864;52.998;9.068;2023-04-15T17:29:50;13.10;99.90
11617;DHT22;5864;52.998;9.068;2023-04-15T17:32:37;13.00;99.90
11617;DHT22;5864;52.998;9.068;2023-04-15T17:35:23;12.90;99.90
11617;DHT22;5864;52.998;9.068;2023-04-15T17:38:09;12.80;99.90
11617;DHT22;5864;52.998;9.068;2023-04-15T17:40:55;12.80;99.90
11617;DHT22;5864;52.998;9.068;2023-04-15T17:43:40;12.80;99.90
11617;DHT22;5864;52.998;9.068;2023-04-15T17:46:26;12.80;99.90
11617;DHT22;5864;52.998;9.068;2023-04-15T17:49:13;13.10;99.90
11617;DHT22;5864;52.998;9.068;2023-04-15T17:51:59;12.80;99.90
11617;DHT22;5864;52.998;9.068;2023-04-15T17:54:44;12.80;99.90
11617;DHT22;5864;52.998;9.068;2023-04-15T17:57:30;12.70;99.90